Latest Coastal Weather Observations for Rosslyn Bay Harbour

IDQ60701

Issued at 7:51 am EST Sunday 4 December 2016 (issued every 10 minutes, with the page automatically refreshed every 10 minutes)

About coastal observations | Map of coastal stations | Coastal observations for QLD | Marine services | Other Formats
Station Details ID: 033208 Name: ROSSLYN BAY NTC AWS Lat: -23.16 Lon: 150.79 Height: 0.0 m
Data from the previous 72 hours. | See also: Recent months for locations in Queensland
Date/Time
EST
Temp
°C
Wind Pressure Rain since
9am
mm
Weather Cloud Vis
km
Sea
Height
m
Swell
Dir  Spd
kts
Gust
kts
hPa Trend Height
m
Period
s
Dir
04/07:30am 26.5 N 5 8 1015.7 - - - - - - - - -
04/07:00am 25.8 NNW 5 7 1015.2 - - - - - - - - -
04/06:30am 26.3 N 8 11 1014.8 - - - - - - - - -
04/06:00am 26.1 NNE 9 12 1014.4 - - - - - - - - -
04/05:30am 25.9 NNE 10 14 1014.2 - - - - - - - - -
04/05:00am 25.9 NNE 10 16 1013.8 - - - - - - - - -
04/04:30am 25.9 NNE 13 18 1013.4 - - - - - - - - -
04/04:00am 26.1 ENE 11 16 1013.8 - - - - - - - - -
04/03:30am 26.0 ENE 11 20 1014.0 - - - - - - - - -
04/03:00am 25.9 SE 5 14 1014.5 - - - - - - - - -
04/02:30am 26.0 W 4 13 1015.3 - - - - - - - - -
04/02:00am 26.1 SSW 5 16 1016.0 - - - - - - - - -
04/01:30am 26.2 SSW 5 12 1016.5 - - - - - - - - -
04/01:00am 26.2 SSW 4 12 1016.6 - - - - - - - - -
04/12:45am 26.2 ESE 6 13 1016.7 - - - - - - - - -
04/12:30am 26.2 NNE 9 13 1014.6 - - - - - - - - -
04/12:00am 26.3 NNE 12 17 1014.3 - - - - - - - - -
 
Date/Time
EST
Temp
°C
Wind Pressure Rain since
9am
mm
Weather Cloud Vis
km
Sea
Height
m
Swell
Dir  Spd
kts
Gust
kts
hPa Trend Height
m
Period
s
Dir
03/11:30pm 26.3 NNE 11 15 1014.7 - - - - - - - - -
03/11:00pm 26.3 NNE 13 17 1014.6 - - - - - - - - -
03/10:30pm 26.5 NNE 13 17 1014.8 - - - - - - - - -
03/10:00pm 26.2 NNE 13 16 1014.5 - - - - - - - - -
03/09:30pm 26.4 NNE 13 17 1013.9 - - - - - - - - -
03/09:00pm 26.4 NNE 13 18 1013.6 - - - - - - - - -
03/08:30pm 26.6 NNE 13 18 1013.3 - - - - - - - - -
03/08:00pm 26.7 NNE 14 21 1012.9 - - - - - - - - -
03/07:30pm 26.6 NNE 14 21 1012.7 - - - - - - - - -
03/07:00pm 26.7 NNE 15 21 1012.6 - - - - - - - - -
03/06:30pm 26.6 NNE 14 20 1012.6 - - - - - - - - -
03/06:00pm 26.8 NNE 13 20 1012.2 - - - - - - - - -
03/05:30pm 26.9 NNE 14 21 1012.0 - - - - - - - - -
03/05:00pm 27.0 NNE 13 20 1011.9 - - - - - - - - -
03/04:30pm 26.8 NE 15 22 1011.8 - - - - - - - - -
03/04:00pm 26.8 NE 18 23 1011.7 - - - - - - - - -
03/03:30pm 26.8 NE 14 20 1011.8 - - - - - - - - -
03/03:00pm 26.8 NE 16 20 1012.0 - - - - - - - - -
03/02:30pm 26.8 NE 15 19 1012.4 - - - - - - - - -
03/02:00pm 26.9 NE 14 19 1012.6 - - - - - - - - -
03/01:30pm 26.8 NE 15 19 1012.9 - - - - - - - - -
03/01:00pm 27.0 NE 11 16 1013.4 - - - - - - - - -
03/12:30pm 27.0 NE 12 16 1013.5 - - - - - - - - -
03/12:00pm 26.9 NE 10 15 1013.9 - - - - - - - - -
03/11:30am 27.0 NE 10 14 1014.1 - - - - - - - - -
03/11:00am 26.8 NE 11 14 1014.3 - - - - - - - - -
03/10:30am 26.6 NE 11 14 1014.4 - - - - - - - - -
03/10:00am 26.5 NE 10 12 1014.7 - - - - - - - - -
03/09:30am 26.7 NE 6 8 1015.0 - - - - - - - - -
03/09:00am 26.5 NNE 5 8 1015.1 - - - - - - - - -
03/08:30am 26.4 NE 4 7 1015.2 - - - - - - - - -
03/08:00am 26.2 NNE 2 4 1015.1 - - - - - - - - -
03/07:30am 26.4 NNW 1 3 1014.8 - - - - - - - - -
03/07:00am 25.4 W 2 4 1014.4 - - - - - - - - -
03/06:30am 25.2 NW 3 5 1013.9 - - - - - - - - -
03/06:00am 25.0 NNW 5 7 1013.6 - - - - - - - - -
03/05:30am 25.3 N 6 9 1012.8 - - - - - - - - -
03/05:00am 25.1 N 4 6 1012.6 - - - - - - - - -
03/04:30am 24.9 NNW 6 7 1012.2 - - - - - - - - -
03/04:00am 25.7 N 8 12 1011.8 - - - - - - - - -
03/03:30am 25.6 N 9 13 1011.5 - - - - - - - - -
03/03:00am 25.6 N 8 11 1011.3 - - - - - - - - -
03/02:30am 25.7 N 8 12 1011.3 - - - - - - - - -
03/02:00am 25.5 N 8 12 1011.5 - - - - - - - - -
03/01:30am 25.5 NNE 10 14 1011.5 - - - - - - - - -
03/01:00am 25.7 N 9 12 1011.6 - - - - - - - - -
03/12:30am 25.6 N 8 11 1011.9 - - - - - - - - -
03/12:00am 25.7 N 11 15 1012.1 - - - - - - - - -
 
Date/Time
EST
Temp
°C
Wind Pressure Rain since
9am
mm
Weather Cloud Vis
km
Sea
Height
m
Swell
Dir  Spd
kts
Gust
kts
hPa Trend Height
m
Period
s
Dir
02/11:30pm 25.5 N 12 16 1012.3 - - - - - - - - -
02/11:00pm 25.6 N 9 14 1012.5 - - - - - - - - -
02/10:30pm 25.7 N 8 12 1012.8 - - - - - - - - -
02/10:00pm 25.9 N 9 16 1012.8 - - - - - - - - -
02/09:30pm 26.2 NNE 15 19 1012.5 - - - - - - - - -
02/09:00pm 26.4 NNE 16 22 1012.1 - - - - - - - - -
02/08:30pm 26.6 NNE 15 21 1011.6 - - - - - - - - -
02/08:00pm 26.8 NNE 15 20 1011.5 - - - - - - - - -
02/07:30pm 26.9 NNE 16 21 1011.3 - - - - - - - - -
02/07:00pm 27.0 NNE 16 21 1011.0 - - - - - - - - -
02/06:30pm 27.0 NNE 15 21 1010.5 - - - - - - - - -
02/06:00pm 27.0 NNE 16 22 1010.0 - - - - - - - - -
02/05:30pm 27.1 NNE 16 24 1009.8 - - - - - - - - -
02/05:00pm 27.1 NNE 18 24 1009.5 - - - - - - - - -
02/04:30pm 27.1 NNE 17 23 1009.4 - - - - - - - - -
02/04:00pm 27.1 NNE 19 25 1009.3 - - - - - - - - -
02/03:30pm 27.1 NE 15 23 1009.6 - - - - - - - - -
02/03:00pm 26.9 NE 15 24 1009.9 - - - - - - - - -
02/02:30pm 27.0 NE 15 22 1010.0 - - - - - - - - -
02/02:00pm 26.9 NE 14 21 1010.2 - - - - - - - - -
02/01:30pm 26.9 NNE 15 21 1010.6 - - - - - - - - -
02/01:00pm 26.8 NE 13 18 1011.1 - - - - - - - - -
02/12:30pm 26.7 NE 12 18 1011.6 - - - - - - - - -
02/12:00pm 26.6 NE 12 16 1012.0 - - - - - - - - -
02/11:30am 26.8 NE 11 17 1012.3 - - - - - - - - -
02/11:00am 26.6 NE 12 17 1012.6 - - - - - - - - -
02/10:30am 26.5 NE 14 16 1012.8 - - - - - - - - -
02/10:00am 26.4 NE 11 15 1013.1 - - - - - - - - -
02/09:30am 26.4 NE 9 14 1013.3 - - - - - - - - -
02/09:00am 26.5 NE 8 13 1013.4 - - - - - - - - -
02/08:30am 26.3 NNE 8 11 1013.3 - - - - - - - - -
02/08:00am 25.9 NNE 7 9 1013.3 - - - - - - - - -
02/07:30am 25.9 N 5 8 1013.3 - - - - - - - - -
02/07:00am 25.0 NNW 6 7 1013.1 - - - - - - - - -
02/06:30am 25.1 N 5 7 1012.8 - - - - - - - - -
02/06:00am 24.9 N 5 7 1012.4 - - - - - - - - -
02/05:30am 24.8 N 4 6 1011.9 - - - - - - - - -
02/05:00am 24.7 N 4 6 1011.4 - - - - - - - - -
02/04:30am 24.7 N 5 7 1011.2 - - - - - - - - -
02/04:00am 24.5 N 4 7 1011.0 - - - - - - - - -
02/03:30am 24.6 NNE 4 6 1010.8 - - - - - - - - -
02/03:00am 24.6 NNW 5 8 1010.2 - - - - - - - - -
02/02:30am 25.0 N 6 10 1009.9 - - - - - - - - -
02/02:00am 25.3 NNE 9 12 1010.0 - - - - - - - - -
02/01:30am 25.1 NNE 6 10 1009.9 - - - - - - - - -
02/01:00am 24.6 NNE 6 8 1010.1 - - - - - - - - -
02/12:30am 24.4 NNW 6 8 1010.2 - - - - - - - - -
02/12:00am 24.7 NNW 7 10 1010.2 - - - - - - - - -
 
Date/Time
EST
Temp
°C
Wind Pressure Rain since
9am
mm
Weather Cloud Vis
km
Sea
Height
m
Swell
Dir  Spd
kts
Gust
kts
hPa Trend Height
m
Period
s
Dir
01/11:30pm 24.6 NNW 8 10 1010.5 - - - - - - - - -
01/11:00pm 25.1 N 8 11 1010.5 - - - - - - - - -
01/10:30pm 25.4 N 8 13 1010.5 - - - - - - - - -
01/10:00pm 25.9 N 11 16 1010.5 - - - - - - - - -
01/09:30pm 26.1 NNE 14 17 1010.5 - - - - - - - - -
01/09:00pm 26.1 NNE 14 18 1010.4 - - - - - - - - -
01/08:30pm 26.4 NNE 15 19 1010.3 - - - - - - - - -
01/08:00pm 26.5 NNE 15 19 1010.1 - - - - - - - - -
01/07:30pm 26.6 NNE 15 20 1009.5 - - - - - - - - -
01/07:00pm 26.6 NNE 16 22 1009.0 - - - - - - - - -
01/06:30pm 26.5 NNE 17 23 1008.6 - - - - - - - - -
01/06:00pm 26.4 NNE 17 23 1008.4 - - - - - - - - -
01/05:30pm 26.4 NNE 18 25 1008.0 - - - - - - - - -
01/05:00pm 26.6 NE 15 23 1007.9 - - - - - - - - -
01/04:30pm 26.7 NE 15 23 1007.9 - - - - - - - - -
01/04:00pm 26.3 NE 17 24 1008.1 - - - - - - - - -
01/03:30pm 26.5 NE 13 19 1008.4 - - - - - - - - -
01/03:00pm 26.4 NE 12 19 1008.8 - - - - - - - - -
01/02:30pm 26.2 NE 13 18 1009.1 - - - - - - - - -
01/02:00pm 26.3 NE 11 17 1009.5 - - - - - - - - -
01/01:30pm 26.3 NE 11 16 1009.7 - - - - - - - - -
01/01:00pm 26.2 NE 10 15 1010.2 - - - - - - - - -
01/12:30pm 26.2 ENE 12 15 1010.8 - - - - - - - - -
01/12:00pm 26.2 ENE 10 14 1011.2 - - - - - - - - -
01/11:30am 26.0 ENE 10 13 1011.6 - - - - - - - - -
01/11:00am 26.2 ENE 8 13 1012.0 - - - - - - - - -
01/10:30am 26.1 NE 9 11 1012.4 - - - - - - - - -
01/10:00am 26.1 ENE 8 12 1012.5 - - - - - - - - -
01/09:30am 26.4 ENE 8 10 1012.7 - - - - - - - - -
01/09:00am 25.6 NE 5 8 1012.8 - - - - - - - - -
01/08:30am 25.9 N 5 7 1012.7 - - - - - - - - -
01/08:00am 25.3 NNW 5 7 1013.0 - - - - - - - - -

Other Formats:

Comma delimited format used in spreadsheet applications
http://www.bom.gov.au/fwo/IDQ60701/IDQ60701.95298.axf

JavaScript Object Notation format (JSON) in row-major order
http://www.bom.gov.au/fwo/IDQ60701/IDQ60701.95298.json